Portada
METAR-TAF:

METAR-TAF

Aeroports :

Tarawa, Kiribati

latitud: 01-21N, longitud: 172-55E, altitud: 2 m

Observació

L'informe es va fer fa 1 hora i 3 minuts, a les 07:00 UTC
Vent 15 kt del Est
Temperatura 28°C
Humitat 79%
Pressió 1006 hPa
Visibilitat 10 km o més
Núvols disperses a una alçada de 1900 ft
Núvols disperses a una alçada de 30000 ft

METAR: NGTA 180700Z 08015KT 9999 SCT019 SCT300 28/24 Q1006

Hora: 22:03 (08:03 UTC)

Pronòstic

L'informe es va fer fa 2 hores i 58 minuts, a les 05:05 UTC
Pronòstic vàlid del 18 a les 06 UTC al 19 a les 06 UTC
Vent 18 kt del Est
Visibilitat 10 km o més
Núvols disperses a una alçada de 1800 ft
Núvols disperses a una alçada de 10000 ft

TAF: NGTA 180505Z 1806/1906 09018KT 9999 SCT018 SCT100

Observacions i pronòstics meteorològics de més de 4000 aeroports (METAR i TAF).

Les estacions disponibles són els punts grocs i vermells al mapa.

Posi el ratolí al punt desitjat per veure el nom de l'estació.

Feu clic per veure les observacions i els pronòstics meteorològics.

Per canviar el mapa: feu clic els botons verds amb una creu de color negre per apropar; al botó verd amb un guió per allunyar la imatge; o en les fletxes verdes per a mapes adjacents.


METAR-TAF: